Nantucket, MA

11:53 PM EST on January 24, 2015 (GMT -0500)
Sconset | Change Station
CLOSE
Current Station
Personal Weather Station
Location: Siasconset, MA
Elevation: 100 ft
Nearby Weather Stations

Elev 100 ft 41.28 °N, 69.96 °W | Updated 1 second ago

Overcast
Overcast
32.5 °F
Feels Like 22 °F
N
16.0
Wind Variable Wind from West
Gusts 21.0 mph

Today
High -- | Low -- °F
--% Chance of Precip.
Yesterday
High -- | Low -- °F
Precip. -- in
6:58 AM 4:46 PM
Waxing Crescent, 28% visible
Pressure 29.27 in
Visibility 10.0 miles
Clouds Scattered Clouds 900 ft
Scattered Clouds 2700 ft
Windchill 22 °F
Dew Point 32 °F
Humidity 97%
Rainfall 1.34 in
Snow Depth Not available.
UV 0 out of 12
Pollen .10 out of 12
Air Quality Not available.
Flu Activity Not available.
METAR KACK 250353Z AUTO 30016G24KT 10SM SCT009 SCT027 01/M01 A2927 RMK AO2 PK WND 30026/0332 SNE27 SLP911 P0000 T00111006

More Conditions Fewer Conditions

Pressure 29.27 in
Visibility 10.0 miles
Clouds Scattered Clouds 900 ft
Scattered Clouds 2700 ft
Windchill 22 °F
Dew Point 32 °F
Humidity 97%
Rainfall 1.34 in
Snow Depth Not available.
UV 0 out of 12
Pollen .10 out of 12
Air Quality Not available.
Flu Activity Not available.
METAR KACK 250353Z AUTO 30016G24KT 10SM SCT009 SCT027 01/M01 A2927 RMK AO2 PK WND 30026/0332 SNE27 SLP911 P0000 T00111006

More Conditions Fewer Conditions

10-Day Weather Forecast

Almanac

Astronomy

Jan. 24, 2015 Rise Set
Actual Time
Civil Twilight
Nautical Twilight
Astronomical Twilight
Moon
Length of Visible Light
Length of Day
Tomorrow will be .
, % of the Moon is Illuminated

Today's Extremes

State Highs State Lows

Community

WunderPhotos

Upload Photos

1,789,839 photos uploaded!

WunderBlogs® & News

Nearby

Air Quality

  Air Quality AQ Index Pollutant
Not available.

Snow Depth

Station Depth Elevation

Earthquake Activity

City Distance Mag. Time & Date
Minimum magnitude displayed is 2.5.

Coastal Water Temperatures

Place Temperature

Nearby Weather Stations